createdAt,value
2023-04-30T00:00:40.598Z,4.10
2023-04-30T00:01:43.495Z,4.70
2023-04-30T00:02:46.609Z,4.32
2023-04-30T00:03:49.857Z,4.20
2023-04-30T00:04:52.820Z,4.10
2023-04-30T00:05:55.545Z,3.90
2023-04-30T00:06:58.284Z,4.20
2023-04-30T00:08:01.102Z,4.22
2023-04-30T00:09:04.031Z,4.65
2023-04-30T00:10:07.577Z,4.00
2023-04-30T00:11:10.440Z,4.20
2023-04-30T00:12:13.298Z,4.15
2023-04-30T00:13:16.066Z,4.10
2023-04-30T00:14:18.956Z,4.10
2023-04-30T00:15:21.651Z,4.40
2023-04-30T00:16:24.519Z,4.53
2023-04-30T00:17:27.383Z,4.65
2023-04-30T00:18:30.283Z,4.22
2023-04-30T00:19:33.298Z,4.00
2023-04-30T00:20:36.075Z,3.92
2023-04-30T00:21:39.353Z,4.47
2023-04-30T00:22:42.156Z,4.82
2023-04-30T00:23:45.100Z,4.32
2023-04-30T00:24:48.436Z,4.50
2023-04-30T00:25:51.100Z,4.55
2023-04-30T00:26:53.838Z,4.50
2023-04-30T00:27:56.589Z,3.97
2023-04-30T00:28:59.361Z,4.30
2023-04-30T00:30:02.266Z,4.40
2023-04-30T00:31:07.402Z,4.10
2023-04-30T00:32:10.251Z,4.43
2023-04-30T00:33:13.028Z,4.72
2023-04-30T00:34:16.000Z,4.68
2023-04-30T00:35:18.750Z,5.20
2023-04-30T00:36:22.018Z,4.62
2023-04-30T00:37:24.751Z,4.82
2023-04-30T00:38:27.709Z,4.70
2023-04-30T00:39:30.700Z,4.15
2023-04-30T00:40:37.796Z,4.22
2023-04-30T00:41:41.495Z,4.18
2023-04-30T00:42:44.189Z,4.57
2023-04-30T00:43:47.390Z,4.35
2023-04-30T00:44:50.186Z,4.50
2023-04-30T00:45:52.941Z,4.45
2023-04-30T00:46:56.063Z,4.45
2023-04-30T00:47:59.224Z,4.50
2023-04-30T00:49:05.133Z,4.40
2023-04-30T00:50:08.272Z,4.43
2023-04-30T00:51:11.757Z,4.10
2023-04-30T00:52:14.649Z,4.70
2023-04-30T00:53:17.538Z,4.05
2023-04-30T00:54:21.556Z,4.47
2023-04-30T00:55:24.457Z,4.30
2023-04-30T00:56:27.488Z,4.35
2023-04-30T00:57:30.690Z,4.18
2023-04-30T00:58:34.475Z,4.57
2023-04-30T00:59:37.517Z,4.30
2023-04-30T01:00:47.293Z,4.20
2023-04-30T01:01:50.200Z,5.25
2023-04-30T01:02:53.121Z,4.30
2023-04-30T01:03:56.120Z,4.50
2023-04-30T01:04:59.196Z,4.65
2023-04-30T01:06:03.576Z,3.92
2023-04-30T01:07:07.227Z,4.28
2023-04-30T01:08:11.703Z,4.05
2023-04-30T01:09:14.608Z,4.30
2023-04-30T01:10:17.500Z,4.00
2023-04-30T01:11:26.308Z,4.20
2023-04-30T01:12:43.450Z,4.53
2023-04-30T01:14:09.988Z,4.03
2023-04-30T01:15:22.043Z,4.05
2023-04-30T01:16:31.305Z,4.07
2023-04-30T01:17:56.531Z,4.32
2023-04-30T01:19:40.289Z,4.32
2023-04-30T01:21:03.508Z,3.92
2023-04-30T01:22:21.091Z,3.97
2023-04-30T01:23:32.785Z,4.43
2023-04-30T01:26:16.516Z,4.05
2023-04-30T01:27:49.892Z,4.22
2023-04-30T01:28:53.693Z,4.25
2023-04-30T01:29:58.183Z,3.78
2023-04-30T01:31:00.998Z,4.55
2023-04-30T01:32:03.904Z,4.47
2023-04-30T01:33:06.751Z,4.00
2023-04-30T01:34:09.457Z,4.20
2023-04-30T01:35:12.713Z,4.50
2023-04-30T01:36:26.930Z,5.03
2023-04-30T01:38:00.263Z,4.80
2023-04-30T01:39:31.907Z,4.87
2023-04-30T01:40:48.354Z,4.10
2023-04-30T01:42:17.092Z,4.30
2023-04-30T01:43:33.705Z,3.78
2023-04-30T01:44:58.036Z,4.55
2023-04-30T01:46:29.010Z,5.25
2023-04-30T01:47:40.730Z,4.85
2023-04-30T01:48:43.501Z,4.30
2023-04-30T01:50:09.475Z,5.00
2023-04-30T01:51:19.622Z,5.20
2023-04-30T01:52:38.148Z,5.40
2023-04-30T01:53:43.301Z,5.70
2023-04-30T01:54:52.976Z,5.03
2023-04-30T01:56:03.147Z,5.22
2023-04-30T01:57:32.673Z,5.25
2023-04-30T01:58:36.284Z,5.35
2023-04-30T01:59:40.218Z,5.72
2023-04-30T02:00:43.027Z,5.78
2023-04-30T02:01:46.021Z,5.40
2023-04-30T02:02:48.998Z,5.97
2023-04-30T02:03:52.054Z,5.55
2023-04-30T02:04:54.802Z,5.28
2023-04-30T02:05:59.271Z,6.15
2023-04-30T02:07:02.038Z,5.47
2023-04-30T02:08:05.199Z,5.47
2023-04-30T02:09:08.072Z,5.60
2023-04-30T02:10:12.469Z,5.85
2023-04-30T02:11:15.876Z,5.55
2023-04-30T02:12:18.798Z,5.15
2023-04-30T02:13:21.412Z,5.03
2023-04-30T02:14:24.216Z,5.30
2023-04-30T02:15:27.672Z,5.53
2023-04-30T02:16:30.534Z,5.47
2023-04-30T02:17:33.956Z,5.43
2023-04-30T02:18:36.965Z,5.18
2023-04-30T02:19:39.818Z,4.90
2023-04-30T02:20:42.599Z,5.30
2023-04-30T02:21:46.013Z,5.47
2023-04-30T02:22:48.751Z,5.10
2023-04-30T02:23:51.504Z,4.95
2023-04-30T02:24:55.968Z,4.97
2023-04-30T02:25:58.707Z,5.28
2023-04-30T02:27:01.415Z,5.03
2023-04-30T02:28:04.510Z,5.22
2023-04-30T02:29:07.272Z,4.70
2023-04-30T02:30:10.374Z,4.80
2023-04-30T02:31:13.432Z,4.95
2023-04-30T02:32:16.754Z,4.70
2023-04-30T02:33:19.494Z,4.65
2023-04-30T02:34:22.378Z,5.05
2023-04-30T02:35:25.031Z,4.43
2023-04-30T02:36:28.034Z,5.10
2023-04-30T02:37:31.002Z,4.87
2023-04-30T02:38:33.834Z,4.40
2023-04-30T02:39:37.189Z,4.55
2023-04-30T02:40:42.402Z,4.95
2023-04-30T02:41:45.113Z,4.78
2023-04-30T02:42:48.554Z,4.97
2023-04-30T02:43:51.810Z,5.35
2023-04-30T02:44:54.944Z,5.10
2023-04-30T02:45:57.700Z,4.90
2023-04-30T02:47:01.388Z,5.32
2023-04-30T02:48:04.225Z,4.82
2023-04-30T02:49:06.941Z,5.00
2023-04-30T02:50:09.957Z,4.97
2023-04-30T02:51:12.832Z,4.78
2023-04-30T02:52:15.958Z,4.60
2023-04-30T02:53:18.858Z,4.78
2023-04-30T02:54:21.764Z,4.90
2023-04-30T02:55:24.523Z,5.35
2023-04-30T02:56:27.359Z,5.12
2023-04-30T02:57:30.063Z,5.07
2023-04-30T02:58:33.074Z,5.10
2023-04-30T02:59:36.568Z,5.22
2023-04-30T03:00:39.371Z,5.15
2023-04-30T03:01:42.303Z,4.80
2023-04-30T03:02:45.134Z,4.90
2023-04-30T03:03:48.067Z,5.32
2023-04-30T03:04:51.008Z,5.50
2023-04-30T03:05:56.834Z,5.10
2023-04-30T03:07:00.654Z,5.57
2023-04-30T03:08:03.448Z,5.10
2023-04-30T03:09:07.028Z,5.30
2023-04-30T03:10:10.950Z,5.40
2023-04-30T03:11:14.041Z,5.68
2023-04-30T03:12:16.884Z,5.50
2023-04-30T03:13:19.844Z,6.00
2023-04-30T03:14:22.725Z,5.57
2023-04-30T03:15:25.594Z,5.57
2023-04-30T03:16:31.254Z,5.00
2023-04-30T03:17:34.014Z,5.68
2023-04-30T03:18:36.918Z,5.53
2023-04-30T03:19:39.637Z,5.78
2023-04-30T03:20:42.639Z,5.30
2023-04-30T03:21:46.668Z,6.37
2023-04-30T03:22:49.544Z,5.47
2023-04-30T03:23:52.377Z,6.85
2023-04-30T03:24:55.650Z,7.28
2023-04-30T03:25:58.502Z,7.50
2023-04-30T03:27:02.149Z,8.40
2023-04-30T03:28:05.136Z,8.18
2023-04-30T03:29:08.113Z,8.63
2023-04-30T03:30:11.488Z,7.95
2023-04-30T03:31:14.428Z,8.13
2023-04-30T03:32:17.218Z,7.90
2023-04-30T03:33:20.111Z,8.70
2023-04-30T03:34:22.953Z,8.35
2023-04-30T03:35:25.938Z,8.55
2023-04-30T03:36:28.834Z,7.57
2023-04-30T03:37:31.985Z,7.35
2023-04-30T03:38:34.774Z,8.10
2023-04-30T03:39:37.497Z,8.55
2023-04-30T03:40:40.479Z,9.38
2023-04-30T03:41:43.513Z,9.25
2023-04-30T03:42:47.175Z,9.15
2023-04-30T03:43:51.178Z,10.27
2023-04-30T03:44:54.124Z,10.27
2023-04-30T03:45:56.868Z,10.20
2023-04-30T03:46:59.603Z,12.13
2023-04-30T03:48:02.395Z,10.93
2023-04-30T03:49:05.952Z,12.37
2023-04-30T03:50:10.101Z,11.75
2023-04-30T03:51:13.038Z,12.30
2023-04-30T03:52:16.197Z,12.65
2023-04-30T03:53:18.945Z,12.82
2023-04-30T03:54:21.641Z,13.60
2023-04-30T03:55:24.432Z,12.88
2023-04-30T03:56:27.452Z,13.40
2023-04-30T03:57:30.562Z,12.48
2023-04-30T03:58:33.490Z,12.70
2023-04-30T03:59:36.145Z,13.15
2023-04-30T04:00:41.847Z,12.90
2023-04-30T04:01:44.698Z,12.60
2023-04-30T04:02:47.585Z,12.18
2023-04-30T04:03:50.440Z,12.70
2023-04-30T04:04:53.395Z,11.85
2023-04-30T04:05:56.362Z,11.90
2023-04-30T04:06:59.231Z,11.43
2023-04-30T04:08:01.998Z,10.68
2023-04-30T04:09:05.252Z,11.40
2023-04-30T04:10:14.063Z,10.70
2023-04-30T04:11:17.030Z,11.50
2023-04-30T04:12:19.797Z,12.00
2023-04-30T04:13:22.561Z,10.80
2023-04-30T04:14:25.354Z,11.93
2023-04-30T04:15:28.032Z,11.20
2023-04-30T04:16:31.020Z,10.77
2023-04-30T04:17:34.078Z,12.07
2023-04-30T04:18:37.568Z,11.60
2023-04-30T04:19:41.076Z,12.57
2023-04-30T04:20:43.929Z,12.52
2023-04-30T04:21:46.976Z,12.10
2023-04-30T04:22:49.949Z,11.40
2023-04-30T04:23:52.700Z,11.52
2023-04-30T04:24:55.440Z,13.15
2023-04-30T04:25:58.101Z,12.20
2023-04-30T04:27:04.467Z,12.10
2023-04-30T04:28:07.457Z,13.85
2023-04-30T04:29:11.584Z,13.85
2023-04-30T04:30:14.449Z,12.93
2023-04-30T04:31:17.471Z,13.40
2023-04-30T04:32:20.446Z,13.32
2023-04-30T04:33:23.239Z,13.65
2023-04-30T04:34:27.029Z,14.57
2023-04-30T04:35:29.785Z,14.20
2023-04-30T04:36:34.390Z,12.52
2023-04-30T04:37:37.424Z,14.07
2023-04-30T04:38:40.195Z,14.15
2023-04-30T04:39:42.871Z,14.43
2023-04-30T04:40:56.845Z,14.23
2023-04-30T04:41:59.803Z,14.87
2023-04-30T04:43:02.473Z,15.32
2023-04-30T04:44:05.359Z,14.87
2023-04-30T04:45:08.733Z,14.68
2023-04-30T04:46:13.761Z,14.40
2023-04-30T04:47:18.829Z,14.45
2023-04-30T04:48:21.902Z,14.98
2023-04-30T04:49:24.719Z,14.60
2023-04-30T04:50:28.103Z,14.02
2023-04-30T04:51:32.385Z,13.80
2023-04-30T04:52:35.308Z,13.52
2023-04-30T04:53:38.005Z,12.88
2023-04-30T04:54:40.652Z,13.27
2023-04-30T04:55:43.535Z,14.38
2023-04-30T04:56:46.331Z,12.45
2023-04-30T04:57:49.181Z,13.68
2023-04-30T04:58:51.985Z,13.27
2023-04-30T04:59:55.320Z,13.65
2023-04-30T05:00:58.305Z,13.23
2023-04-30T05:02:01.576Z,13.15
2023-04-30T05:03:04.506Z,12.77
2023-04-30T05:04:09.870Z,12.55
2023-04-30T05:05:12.720Z,13.88
2023-04-30T05:06:15.713Z,13.35
2023-04-30T05:07:18.562Z,13.70
2023-04-30T05:08:21.707Z,13.10
2023-04-30T05:09:24.510Z,13.40
2023-04-30T05:10:27.391Z,13.48
2023-04-30T05:11:30.147Z,13.35
2023-04-30T05:12:33.679Z,13.48
2023-04-30T05:13:36.481Z,14.30
2023-04-30T05:14:39.211Z,14.55
2023-04-30T05:15:41.857Z,13.95
2023-04-30T05:16:44.755Z,13.30
2023-04-30T05:17:47.741Z,13.13
2023-04-30T05:18:50.991Z,14.35
2023-04-30T05:19:54.179Z,14.55
2023-04-30T05:20:57.156Z,13.40
2023-04-30T05:22:01.620Z,14.48
2023-04-30T05:23:04.255Z,14.43
2023-04-30T05:24:07.000Z,13.62
2023-04-30T05:25:09.957Z,13.48
2023-04-30T05:26:12.746Z,13.80
2023-04-30T05:27:16.924Z,13.45
2023-04-30T05:28:20.091Z,12.80
2023-04-30T05:29:22.850Z,13.32
2023-04-30T05:30:25.869Z,12.82
2023-04-30T05:31:28.654Z,12.82
2023-04-30T05:32:31.728Z,13.43
2023-04-30T05:33:34.794Z,12.77
2023-04-30T05:34:37.732Z,12.20
2023-04-30T05:35:40.547Z,12.52
2023-04-30T05:36:44.384Z,12.85
2023-04-30T05:37:47.227Z,12.70
2023-04-30T05:38:50.116Z,12.40
2023-04-30T05:39:54.114Z,12.52
2023-04-30T05:40:56.919Z,12.52
2023-04-30T05:41:59.778Z,12.65
2023-04-30T05:43:02.494Z,12.40
2023-04-30T05:44:05.666Z,12.25
2023-04-30T05:45:08.836Z,12.10
2023-04-30T05:46:11.558Z,12.55
2023-04-30T05:47:14.522Z,13.05
2023-04-30T05:48:17.331Z,11.32
2023-04-30T05:49:20.181Z,13.80
2023-04-30T05:50:23.239Z,12.55
2023-04-30T05:51:26.178Z,12.68
2023-04-30T05:52:28.963Z,12.77
2023-04-30T05:53:32.024Z,12.05
2023-04-30T05:54:35.059Z,12.77
2023-04-30T05:55:38.003Z,12.13
2023-04-30T05:56:40.969Z,12.48
2023-04-30T05:57:43.735Z,11.65
2023-04-30T05:58:46.859Z,11.80
2023-04-30T05:59:49.828Z,11.52
2023-04-30T06:00:52.651Z,11.23
2023-04-30T06:01:55.344Z,12.43
2023-04-30T06:02:58.416Z,11.27
2023-04-30T06:04:09.647Z,12.23
2023-04-30T06:05:14.587Z,11.40
2023-04-30T06:06:19.109Z,10.93
2023-04-30T06:07:21.881Z,11.27
2023-04-30T06:08:25.046Z,10.40
2023-04-30T06:09:28.028Z,11.65
2023-04-30T06:10:31.164Z,11.45
2023-04-30T06:11:34.063Z,10.77
2023-04-30T06:12:36.958Z,10.60
2023-04-30T06:13:40.668Z,10.93
2023-04-30T06:14:45.800Z,11.07
2023-04-30T06:15:48.583Z,10.10
2023-04-30T06:16:51.577Z,9.55
2023-04-30T06:17:54.514Z,9.73
2023-04-30T06:18:57.314Z,10.05
2023-04-30T06:20:02.816Z,9.38
2023-04-30T06:21:05.692Z,9.13
2023-04-30T06:22:08.513Z,8.45
2023-04-30T06:23:11.342Z,8.63
2023-04-30T06:24:14.418Z,8.68
2023-04-30T06:25:17.199Z,8.18
2023-04-30T06:26:20.420Z,7.95
2023-04-30T06:27:23.684Z,7.62
2023-04-30T06:28:26.649Z,8.00
2023-04-30T06:29:29.334Z,7.80
2023-04-30T06:30:32.501Z,7.53
2023-04-30T06:31:35.606Z,7.68
2023-04-30T06:32:38.647Z,8.75
2023-04-30T06:33:41.351Z,8.15
2023-04-30T06:34:44.048Z,6.72
2023-04-30T06:35:47.117Z,6.62
2023-04-30T06:36:49.782Z,6.78
2023-04-30T06:37:52.690Z,7.12
2023-04-30T06:38:55.499Z,6.40
2023-04-30T06:39:58.332Z,7.20
2023-04-30T06:41:01.195Z,6.90
2023-04-30T06:42:04.473Z,6.87
2023-04-30T06:43:07.188Z,7.10
2023-04-30T06:44:33.332Z,6.50
2023-04-30T06:45:36.276Z,6.35
2023-04-30T06:46:39.278Z,6.20
2023-04-30T06:47:43.063Z,6.25
2023-04-30T06:48:46.024Z,6.30
2023-04-30T06:49:49.545Z,5.93
2023-04-30T06:50:52.690Z,5.47
2023-04-30T06:51:58.574Z,5.82
2023-04-30T06:53:01.484Z,5.70
2023-04-30T06:54:04.392Z,5.78
2023-04-30T06:55:07.884Z,5.78
2023-04-30T06:56:10.694Z,5.03
2023-04-30T06:57:13.372Z,5.80
2023-04-30T06:58:16.484Z,5.45
2023-04-30T06:59:19.590Z,5.85
2023-04-30T07:00:22.348Z,5.82
2023-04-30T07:01:25.163Z,5.68
2023-04-30T07:02:28.263Z,5.68
2023-04-30T07:03:31.284Z,5.18
2023-04-30T07:04:34.114Z,5.18
2023-04-30T07:05:36.797Z,5.07
2023-04-30T07:06:39.669Z,5.37
2023-04-30T07:07:42.879Z,5.87
2023-04-30T07:08:45.897Z,5.75
2023-04-30T07:09:49.685Z,5.53
2023-04-30T07:10:54.356Z,5.90
2023-04-30T07:11:58.921Z,5.80
2023-04-30T07:13:02.243Z,6.37
2023-04-30T07:14:05.429Z,5.62
2023-04-30T07:15:08.656Z,6.62
2023-04-30T07:16:11.749Z,6.87
2023-04-30T07:17:15.009Z,6.05
2023-04-30T07:18:18.043Z,6.65
2023-04-30T07:19:20.912Z,6.40
2023-04-30T07:20:23.987Z,6.03
2023-04-30T07:21:28.133Z,6.10
2023-04-30T07:22:31.977Z,6.07
2023-04-30T07:23:35.159Z,6.32
2023-04-30T07:24:38.067Z,6.80
2023-04-30T07:25:41.153Z,5.85
2023-04-30T07:26:43.858Z,6.18
2023-04-30T07:27:47.201Z,6.20
2023-04-30T07:28:50.419Z,6.57
2023-04-30T07:29:53.525Z,6.25
2023-04-30T07:30:56.379Z,5.60
2023-04-30T07:31:59.105Z,5.10
2023-04-30T07:33:02.220Z,5.00
2023-04-30T07:34:04.977Z,5.55
2023-04-30T07:35:08.093Z,5.93
2023-04-30T07:36:11.648Z,5.55
2023-04-30T07:37:14.594Z,5.93
2023-04-30T07:38:19.479Z,5.85
2023-04-30T07:39:22.191Z,5.10
2023-04-30T07:40:34.884Z,5.47
2023-04-30T07:41:38.655Z,5.60
2023-04-30T07:42:42.455Z,5.05
2023-04-30T07:43:45.315Z,5.10
2023-04-30T07:44:49.102Z,5.18
2023-04-30T07:45:53.951Z,4.43
2023-04-30T07:46:56.972Z,4.43
2023-04-30T07:47:59.719Z,4.00
2023-04-30T07:49:02.811Z,3.80
2023-04-30T07:50:06.383Z,4.55
2023-04-30T07:51:09.313Z,4.45
2023-04-30T07:52:12.690Z,4.12
2023-04-30T07:53:15.602Z,4.10
2023-04-30T07:54:18.487Z,3.80
2023-04-30T07:55:21.257Z,4.40
2023-04-30T07:56:24.063Z,4.28
2023-04-30T07:57:27.204Z,4.78
2023-04-30T07:58:29.918Z,4.82
2023-04-30T07:59:32.954Z,5.07
2023-04-30T08:00:36.055Z,4.35
2023-04-30T08:01:38.742Z,4.47
2023-04-30T08:02:44.325Z,4.87
2023-04-30T08:03:47.412Z,4.50
2023-04-30T08:04:50.138Z,4.28
2023-04-30T08:05:53.170Z,4.70
2023-04-30T08:06:55.882Z,4.18
2023-04-30T08:07:58.656Z,5.22
2023-04-30T08:09:01.442Z,4.70
2023-04-30T08:10:04.411Z,4.55
2023-04-30T08:11:07.279Z,4.10
2023-04-30T08:12:10.648Z,4.07
2023-04-30T08:13:13.685Z,3.67
2023-04-30T08:14:16.486Z,3.58
2023-04-30T08:15:22.264Z,4.10
2023-04-30T08:16:25.114Z,3.67
2023-04-30T08:17:28.295Z,3.90
2023-04-30T08:18:32.464Z,3.47
2023-04-30T08:19:35.473Z,3.65
2023-04-30T08:20:38.776Z,3.30
2023-04-30T08:21:42.124Z,3.30
2023-04-30T08:22:45.570Z,3.25
2023-04-30T08:23:48.203Z,3.40
2023-04-30T08:24:51.195Z,3.20
2023-04-30T08:25:54.353Z,3.08
2023-04-30T08:26:57.283Z,3.03
2023-04-30T08:28:00.110Z,3.72
2023-04-30T08:29:03.172Z,2.85
2023-04-30T08:30:07.677Z,2.92
2023-04-30T08:31:10.633Z,2.83
2023-04-30T08:32:14.071Z,2.83
2023-04-30T08:33:17.129Z,2.58
2023-04-30T08:34:19.985Z,2.47
2023-04-30T08:35:22.849Z,2.25
2023-04-30T08:36:25.824Z,2.00
2023-04-30T08:37:28.851Z,2.30
2023-04-30T08:38:31.766Z,2.30
2023-04-30T08:39:34.918Z,2.40
2023-04-30T08:40:50.970Z,2.20
2023-04-30T08:42:02.408Z,2.08
2023-04-30T08:43:11.820Z,2.03
2023-04-30T08:44:14.581Z,1.75
2023-04-30T08:45:19.996Z,2.22
2023-04-30T08:46:24.546Z,2.50
2023-04-30T08:47:28.475Z,2.67
2023-04-30T08:48:32.173Z,2.33
2023-04-30T08:49:37.406Z,2.30
2023-04-30T08:50:40.356Z,2.50
2023-04-30T08:51:43.671Z,2.55
2023-04-30T08:52:46.608Z,2.20
2023-04-30T08:53:50.895Z,2.58
2023-04-30T08:54:55.293Z,2.28
2023-04-30T08:55:58.645Z,2.20
2023-04-30T08:57:02.885Z,2.08
2023-04-30T08:58:05.947Z,2.60
2023-04-30T08:59:08.967Z,2.62
2023-04-30T09:00:12.556Z,2.28
2023-04-30T09:01:16.328Z,2.17
2023-04-30T09:02:19.219Z,2.00
2023-04-30T09:03:23.913Z,2.67
2023-04-30T09:04:27.190Z,2.45
2023-04-30T09:05:29.852Z,2.40
2023-04-30T09:06:32.959Z,2.40
2023-04-30T09:07:37.723Z,2.35
2023-04-30T09:08:42.800Z,2.30
2023-04-30T09:09:45.495Z,2.80
2023-04-30T09:10:48.426Z,2.40
2023-04-30T09:11:51.088Z,2.45
2023-04-30T09:13:05.157Z,2.37
2023-04-30T09:14:09.044Z,2.70
2023-04-30T09:15:12.797Z,2.40
2023-04-30T09:16:15.853Z,2.40
2023-04-30T09:17:23.263Z,2.58
2023-04-30T09:18:26.392Z,2.50
2023-04-30T09:19:31.216Z,2.53
2023-04-30T09:20:34.354Z,2.03
2023-04-30T09:21:38.056Z,1.98
2023-04-30T09:22:42.573Z,2.05
2023-04-30T09:23:59.515Z,2.15
2023-04-30T09:25:02.492Z,2.00
2023-04-30T09:26:05.491Z,2.15
2023-04-30T09:27:17.519Z,2.05
2023-04-30T09:28:24.698Z,1.92
2023-04-30T09:29:37.781Z,1.98
2023-04-30T09:30:42.003Z,1.73
2023-04-30T09:31:47.347Z,2.40
2023-04-30T09:32:56.995Z,1.92
2023-04-30T09:34:00.558Z,1.90
2023-04-30T09:35:03.609Z,2.05
2023-04-30T09:36:10.129Z,1.77
2023-04-30T09:37:12.938Z,2.22
2023-04-30T09:38:32.732Z,2.22
2023-04-30T09:39:57.163Z,2.58
2023-04-30T09:41:01.389Z,2.20
2023-04-30T09:42:11.249Z,2.33
2023-04-30T09:43:14.185Z,2.20
2023-04-30T09:44:30.705Z,2.55
2023-04-30T09:45:50.123Z,2.45
2023-04-30T09:46:53.034Z,2.00
2023-04-30T09:48:12.726Z,2.25
2023-04-30T09:49:20.247Z,2.50
2023-04-30T09:50:26.706Z,2.10
2023-04-30T09:51:29.791Z,2.37
2023-04-30T09:52:32.764Z,2.45
2023-04-30T09:53:39.029Z,2.12
2023-04-30T09:54:43.977Z,2.65
2023-04-30T09:55:51.180Z,2.60
2023-04-30T09:56:55.757Z,2.42
2023-04-30T09:57:59.993Z,2.22
2023-04-30T09:59:07.425Z,2.22
2023-04-30T10:00:12.087Z,1.95
2023-04-30T10:01:15.301Z,1.65
2023-04-30T10:02:20.387Z,1.73
2023-04-30T10:03:24.319Z,1.48
2023-04-30T10:04:34.564Z,1.60
2023-04-30T10:05:43.066Z,1.80
2023-04-30T10:06:46.922Z,1.50
2023-04-30T10:07:49.959Z,2.08
2023-04-30T10:08:57.705Z,2.00
2023-04-30T10:10:11.837Z,2.05
2023-04-30T10:11:19.922Z,1.60
2023-04-30T10:12:54.800Z,1.70
2023-04-30T10:14:13.094Z,1.73
2023-04-30T10:15:20.656Z,1.40
2023-04-30T10:16:29.496Z,1.20
2023-04-30T10:17:41.182Z,1.50
2023-04-30T10:18:46.570Z,1.48
2023-04-30T10:19:52.800Z,1.27
2023-04-30T10:20:57.874Z,1.15
2023-04-30T10:22:02.255Z,1.50
2023-04-30T10:23:05.930Z,2.10
2023-04-30T10:24:13.979Z,1.70
2023-04-30T10:25:17.544Z,1.80
2023-04-30T10:26:20.710Z,1.87
2023-04-30T10:27:23.653Z,2.58
2023-04-30T10:28:27.368Z,2.08
2023-04-30T10:29:30.302Z,2.10
2023-04-30T10:30:35.571Z,2.05
2023-04-30T10:31:40.060Z,2.35
2023-04-30T10:32:52.050Z,2.10
2023-04-30T10:34:10.014Z,2.00
2023-04-30T10:35:23.673Z,2.20
2023-04-30T10:36:41.395Z,1.70
2023-04-30T10:37:51.154Z,1.90
2023-04-30T10:38:54.558Z,1.67
2023-04-30T10:39:57.744Z,1.50
2023-04-30T10:41:02.029Z,1.90
2023-04-30T10:42:06.480Z,1.60
2023-04-30T10:43:11.613Z,1.85
2023-04-30T10:44:14.422Z,2.10
2023-04-30T10:45:17.554Z,2.00
2023-04-30T10:46:24.414Z,1.92
2023-04-30T10:47:31.351Z,1.90
2023-04-30T10:48:35.747Z,1.60
2023-04-30T10:49:39.243Z,1.45
2023-04-30T10:50:45.774Z,1.60
2023-04-30T10:51:58.690Z,1.90
2023-04-30T10:53:05.648Z,1.42
2023-04-30T10:54:09.548Z,1.60
2023-04-30T10:55:17.250Z,1.90
2023-04-30T10:56:33.617Z,1.67
2023-04-30T10:57:47.164Z,1.60
2023-04-30T10:58:51.379Z,1.95
2023-04-30T11:00:16.922Z,1.85
2023-04-30T11:01:19.876Z,1.40
2023-04-30T11:02:22.995Z,1.60
2023-04-30T11:03:26.374Z,1.40
2023-04-30T11:04:29.397Z,1.60
2023-04-30T11:05:39.564Z,1.70
2023-04-30T11:06:57.288Z,1.55
2023-04-30T11:08:00.296Z,1.73
2023-04-30T11:09:04.325Z,1.70
2023-04-30T11:10:10.010Z,1.92
2023-04-30T11:11:21.440Z,1.80
2023-04-30T11:12:30.774Z,1.90
2023-04-30T11:13:45.909Z,1.77
2023-04-30T11:14:50.560Z,1.60
2023-04-30T11:15:53.770Z,1.70
2023-04-30T11:16:56.762Z,1.50
2023-04-30T11:17:59.934Z,1.75
2023-04-30T11:19:13.978Z,1.50
2023-04-30T11:20:21.577Z,1.80
2023-04-30T11:21:26.312Z,1.45
2023-04-30T11:22:39.028Z,1.80
2023-04-30T11:23:46.015Z,1.80
2023-04-30T11:24:55.382Z,1.60
2023-04-30T11:26:01.323Z,2.03
2023-04-30T11:27:07.556Z,1.62
2023-04-30T11:28:26.319Z,1.67
2023-04-30T11:29:29.654Z,1.65
2023-04-30T11:30:33.154Z,1.70
2023-04-30T11:31:36.543Z,1.77
2023-04-30T11:32:40.040Z,1.70
2023-04-30T11:33:42.855Z,1.85
2023-04-30T11:34:46.131Z,1.40
2023-04-30T11:35:53.656Z,1.65
2023-04-30T11:37:01.184Z,1.50
2023-04-30T11:38:05.732Z,1.55
2023-04-30T11:39:09.639Z,1.52
2023-04-30T11:40:14.911Z,1.50
2023-04-30T11:41:17.816Z,1.40
2023-04-30T11:42:21.460Z,1.60
2023-04-30T11:43:26.428Z,1.60
2023-04-30T11:44:29.330Z,1.50
2023-04-30T11:45:32.138Z,1.62
2023-04-30T11:46:34.944Z,1.70
2023-04-30T11:47:47.617Z,1.30
2023-04-30T11:48:51.194Z,1.52
2023-04-30T11:49:57.524Z,1.48
2023-04-30T11:51:03.841Z,1.27
2023-04-30T11:52:08.737Z,1.37
2023-04-30T11:53:11.450Z,1.67
2023-04-30T11:54:14.747Z,1.70
2023-04-30T11:55:19.037Z,1.37
2023-04-30T11:56:24.522Z,1.50
2023-04-30T11:57:27.388Z,1.52
2023-04-30T11:58:40.778Z,1.30
2023-04-30T11:59:43.979Z,1.40
2023-04-30T12:00:48.242Z,1.42
2023-04-30T12:01:50.940Z,1.35
2023-04-30T12:02:54.634Z,1.35
2023-04-30T12:03:57.770Z,1.40
2023-04-30T12:05:00.709Z,1.35
2023-04-30T12:06:03.677Z,1.48
2023-04-30T12:07:09.340Z,1.55
2023-04-30T12:08:12.610Z,1.55
2023-04-30T12:09:15.472Z,1.30
2023-04-30T12:10:22.254Z,1.42
2023-04-30T12:11:29.499Z,1.30
2023-04-30T12:12:33.058Z,1.30
2023-04-30T12:13:36.149Z,1.50
2023-04-30T12:14:39.054Z,1.60
2023-04-30T12:15:41.870Z,1.70
2023-04-30T12:16:50.648Z,1.45
2023-04-30T12:17:55.901Z,1.25
2023-04-30T12:18:58.931Z,1.37
2023-04-30T12:20:02.070Z,1.45
2023-04-30T12:21:05.416Z,1.40
2023-04-30T12:22:08.382Z,1.35
2023-04-30T12:23:11.419Z,1.27
2023-04-30T12:24:18.930Z,1.20
2023-04-30T12:25:23.171Z,1.30
2023-04-30T12:26:35.786Z,1.52
2023-04-30T12:27:38.850Z,1.30
2023-04-30T12:28:41.819Z,1.20
2023-04-30T12:29:48.909Z,1.35
2023-04-30T12:30:54.221Z,1.50
2023-04-30T12:31:58.277Z,1.50
2023-04-30T12:33:03.884Z,1.35
2023-04-30T12:34:09.112Z,1.70
2023-04-30T12:35:19.958Z,1.33
2023-04-30T12:36:22.742Z,1.80
2023-04-30T12:37:27.585Z,1.77
2023-04-30T12:38:30.882Z,1.40
2023-04-30T12:39:34.568Z,1.60
2023-04-30T12:40:38.078Z,1.25
2023-04-30T12:41:49.291Z,1.33
2023-04-30T12:42:52.137Z,1.40
2023-04-30T12:44:19.549Z,1.45
2023-04-30T12:46:01.228Z,1.80
2023-04-30T12:47:10.346Z,1.67
2023-04-30T12:48:14.746Z,1.37
2023-04-30T12:49:25.785Z,1.37
2023-04-30T12:50:29.420Z,1.10
2023-04-30T12:51:37.113Z,1.40
2023-04-30T12:52:41.114Z,1.40
2023-04-30T12:53:47.265Z,1.42
2023-04-30T12:54:50.072Z,1.10
2023-04-30T12:56:15.626Z,1.20
2023-04-30T12:57:18.825Z,1.30
2023-04-30T12:58:22.454Z,1.35
2023-04-30T12:59:25.279Z,1.23
2023-04-30T13:00:28.009Z,1.27
2023-04-30T13:01:30.936Z,1.45
2023-04-30T13:02:34.200Z,1.33
2023-04-30T13:03:37.649Z,1.42
2023-04-30T13:04:42.750Z,1.65
2023-04-30T13:05:50.699Z,1.17
2023-04-30T13:06:53.733Z,1.10
2023-04-30T13:08:03.652Z,1.25
2023-04-30T13:09:06.882Z,1.08
2023-04-30T13:10:10.122Z,1.15
2023-04-30T13:11:13.438Z,1.10
2023-04-30T13:12:16.468Z,1.15
2023-04-30T13:13:20.468Z,1.20
2023-04-30T13:14:23.423Z,1.27
2023-04-30T13:15:26.884Z,1.15
2023-04-30T13:16:31.284Z,1.12
2023-04-30T13:17:34.109Z,1.20
2023-04-30T13:18:37.637Z,1.20
2023-04-30T13:19:40.856Z,1.00
2023-04-30T13:20:44.158Z,1.23
2023-04-30T13:21:47.050Z,1.17
2023-04-30T13:22:49.795Z,1.00
2023-04-30T13:23:54.521Z,1.30
2023-04-30T13:24:59.031Z,1.10
2023-04-30T13:26:01.793Z,1.20
2023-04-30T13:27:05.074Z,1.30
2023-04-30T13:28:08.390Z,1.20
2023-04-30T13:29:11.980Z,1.10
2023-04-30T13:30:15.021Z,1.10
2023-04-30T13:31:17.856Z,0.90
2023-04-30T13:32:20.648Z,1.20
2023-04-30T13:33:26.128Z,1.10
2023-04-30T13:34:29.100Z,1.33
2023-04-30T13:35:31.847Z,1.15
2023-04-30T13:36:34.917Z,1.20
2023-04-30T13:37:38.939Z,1.20
2023-04-30T13:38:41.943Z,1.30
2023-04-30T13:39:44.744Z,1.15
2023-04-30T13:40:47.445Z,1.12
2023-04-30T13:41:50.743Z,1.10
2023-04-30T13:42:53.533Z,1.20
2023-04-30T13:43:56.405Z,1.00
2023-04-30T13:44:59.219Z,1.23
2023-04-30T13:46:02.158Z,1.23
2023-04-30T13:47:04.979Z,1.30
2023-04-30T13:48:07.796Z,1.35
2023-04-30T13:49:10.898Z,1.10
2023-04-30T13:50:13.590Z,1.20
2023-04-30T13:51:16.347Z,1.00
2023-04-30T13:52:19.169Z,0.93
2023-04-30T13:53:22.879Z,1.12
2023-04-30T13:54:25.714Z,0.98
2023-04-30T13:55:28.605Z,1.20
2023-04-30T13:56:31.715Z,1.20
2023-04-30T13:57:35.022Z,0.90
2023-04-30T13:58:38.422Z,1.08
2023-04-30T13:59:41.181Z,1.17
2023-04-30T14:00:43.979Z,1.02
2023-04-30T14:01:47.177Z,0.88
2023-04-30T14:02:49.922Z,0.90
2023-04-30T14:03:53.072Z,1.20
2023-04-30T14:05:05.248Z,1.10
2023-04-30T14:06:08.966Z,1.20
2023-04-30T14:07:12.107Z,1.20
2023-04-30T14:08:14.881Z,1.10
2023-04-30T14:09:18.392Z,1.05
2023-04-30T14:10:21.277Z,1.08
2023-04-30T14:11:24.141Z,1.00
2023-04-30T14:12:26.877Z,0.90
2023-04-30T14:13:29.953Z,1.05
2023-04-30T14:14:32.782Z,1.35
2023-04-30T14:15:36.058Z,0.90
2023-04-30T14:16:39.520Z,0.90
2023-04-30T14:17:42.592Z,1.10
2023-04-30T14:18:45.519Z,1.17
2023-04-30T14:19:48.240Z,0.90